aviador You're here:

KOJC Decoded Metar

OLATHE/EXECUTIVE in KS, USA
Report Time2017-11-18 12:53:00
UTC Time2017-11-18 13:53:27
Flight Rules mvfr MVFR
Wind360° at 23 Gusting to 33 kt
W.Decomp.*RWY 36: 22.9 kt HW 1.6 kt LCW
Visibility9999 m
Phenomena:Light Rain
Clouds:Overcast 011 Hf
Expected CloudBase > 800 ft AGL from Temp-Dew spread
Ceiling1,100 ft
Temp08°C (ISA -5)
Dew Point06°C (87% RH)
AAT-1.2°C
QNH1002 hPa
Density Alt991 ft
Elevation1,070 ft
Report Wrong Elevation
Raw Report
KOJC 181253Z 36023G33KT 9SM -RA OVC011 08/06 A2959 RMK AO2 PK WND
35037/1242 SLP018 P0001 T00780061 $=

Extra information for KOJC:More info

Metar Taf Metar & Taf Last 4 Metars F.Rules Stats Wind Profile Meteogram Temp Stats Airport Information Weather charts Add Link Nearby VenuesMetar ALERT Operation Metar Decoded Social comments

AIRNAV info for KOJC